KPEQ

Details ICAO KPEQ (PEQ)
Name PECOS MUNI
Region United States
Timezone America/Chicago (UTC-6.0)
Plans Departing 5
Arriving 7
Stats Elevation 2,612 ft / 796 m (AMSL)
Location 31.382327° -103.510693°
Runways 2
Magnetic Variation 6.838° E
Sunrise 2017-12-15 13:47:13 UTC / 2017-12-15 07:47:13 Local
Sunset 2017-12-15 23:54:14 UTC / 2017-12-15 17:54:14 Local
Advertisement - Login to hide

Runways

ID Width Length Bearing (true) Bearing (mag) Surface Threshold Offset Overrun Length
09 80 ft / 24 m 5,945 ft / 1,812 m 101.26° 94.42° Asphalt 0 ft / 0 m 0 ft / 0 m
14 80 ft / 24 m 6,246 ft / 1,904 m 146.34° 139.50° Asphalt 0 ft / 0 m 0 ft / 0 m
27 80 ft / 24 m 5,945 ft / 1,812 m 281.27° 274.43° Asphalt 0 ft / 0 m 0 ft / 0 m
32 80 ft / 24 m 6,246 ft / 1,904 m 326.34° 319.50° Asphalt 0 ft / 0 m 0 ft / 0 m

Map

Weather


0- 5 10 15 20 25 30 35+ Temperature / ° C

Clouds and Precipitation
Forecast for 2017-12-15 18:00 UTC. Updated an hour ago

Ground ~20,000 ft ~40,000 ft Winds

METAR

KPEQ 151415Z AUTO 00000KT 10SM CLR M02/M04 A3039 RMK AO2 T10171040

TAF

TAF KPEQ 151120Z 1512/1612 16006KT P6SM SKC

Frequencies

Recorded 118.17 MHz AWOS 3
Unicom 122.80 MHz CTAF/UNICOM
Warning: Do not use this data for real-world aviation or navigation. No guarantee of current accuracy is given.